sensor_id;sensor_type;location;lat;lon;timestamp;P1;durP1;ratioP1;P2;durP2;ratioP2
67640;SDS011;54434;50.096;20.082;2023-04-24T00:02:01;14.10;;;7.40;;
67640;SDS011;54434;50.096;20.082;2023-04-24T00:04:40;14.40;;;8.50;;
67640;SDS011;54434;50.096;20.082;2023-04-24T00:07:18;13.20;;;7.80;;
67640;SDS011;54434;50.096;20.082;2023-04-24T00:09:55;14.80;;;8.00;;
67640;SDS011;54434;50.096;20.082;2023-04-24T00:12:32;16.50;;;7.70;;
67640;SDS011;54434;50.096;20.082;2023-04-24T00:15:11;13.80;;;7.90;;
67640;SDS011;54434;50.096;20.082;2023-04-24T00:17:48;16.60;;;8.80;;
67640;SDS011;54434;50.096;20.082;2023-04-24T00:20:25;14.20;;;8.20;;
67640;SDS011;54434;50.096;20.082;2023-04-24T00:23:02;13.50;;;8.20;;
67640;SDS011;54434;50.096;20.082;2023-04-24T00:25:38;13.10;;;8.20;;
67640;SDS011;54434;50.096;20.082;2023-04-24T00:28:15;12.70;;;7.80;;
67640;SDS011;54434;50.096;20.082;2023-04-24T00:30:51;12.80;;;7.60;;
67640;SDS011;54434;50.096;20.082;2023-04-24T00:33:28;14.40;;;8.40;;
67640;SDS011;54434;50.096;20.082;2023-04-24T00:36:05;13.40;;;8.10;;
67640;SDS011;54434;50.096;20.082;2023-04-24T00:38:41;15.80;;;8.20;;
67640;SDS011;54434;50.096;20.082;2023-04-24T00:41:18;13.30;;;8.30;;
67640;SDS011;54434;50.096;20.082;2023-04-24T00:43:55;13.40;;;8.30;;
67640;SDS011;54434;50.096;20.082;2023-04-24T00:46:34;13.80;;;8.80;;
67640;SDS011;54434;50.096;20.082;2023-04-24T00:49:10;17.40;;;8.40;;
67640;SDS011;54434;50.096;20.082;2023-04-24T00:51:48;13.10;;;8.50;;
67640;SDS011;54434;50.096;20.082;2023-04-24T00:54:24;12.70;;;8.20;;
67640;SDS011;54434;50.096;20.082;2023-04-24T00:57:01;14.60;;;8.80;;
67640;SDS011;54434;50.096;20.082;2023-04-24T00:59:38;14.00;;;8.40;;
67640;SDS011;54434;50.096;20.082;2023-04-24T01:02:15;14.00;;;8.50;;
67640;SDS011;54434;50.096;20.082;2023-04-24T01:04:52;15.20;;;9.10;;
67640;SDS011;54434;50.096;20.082;2023-04-24T01:07:30;16.30;;;8.80;;
67640;SDS011;54434;50.096;20.082;2023-04-24T01:10:09;15.90;;;8.50;;
67640;SDS011;54434;50.096;20.082;2023-04-24T01:12:47;14.50;;;8.40;;
67640;SDS011;54434;50.096;20.082;2023-04-24T01:15:23;15.10;;;8.90;;
67640;SDS011;54434;50.096;20.082;2023-04-24T01:18:00;15.80;;;8.50;;
67640;SDS011;54434;50.096;20.082;2023-04-24T01:20:38;13.30;;;8.60;;
67640;SDS011;54434;50.096;20.082;2023-04-24T01:23:17;16.40;;;8.70;;
67640;SDS011;54434;50.096;20.082;2023-04-24T01:25:54;15.10;;;8.60;;
67640;SDS011;54434;50.096;20.082;2023-04-24T01:28:31;14.60;;;9.50;;
67640;SDS011;54434;50.096;20.082;2023-04-24T01:31:10;12.80;;;9.00;;
67640;SDS011;54434;50.096;20.082;2023-04-24T01:33:47;15.80;;;8.90;;
67640;SDS011;54434;50.096;20.082;2023-04-24T01:36:25;12.90;;;8.50;;
67640;SDS011;54434;50.096;20.082;2023-04-24T01:39:04;15.60;;;8.70;;
67640;SDS011;54434;50.096;20.082;2023-04-24T01:41:41;16.20;;;9.10;;
67640;SDS011;54434;50.096;20.082;2023-04-24T01:44:18;13.50;;;8.70;;
67640;SDS011;54434;50.096;20.082;2023-04-24T01:46:56;16.10;;;9.50;;
67640;SDS011;54434;50.096;20.082;2023-04-24T01:49:33;14.30;;;9.10;;
67640;SDS011;54434;50.096;20.082;2023-04-24T01:52:11;16.50;;;9.20;;
67640;SDS011;54434;50.096;20.082;2023-04-24T01:54:47;17.30;;;9.30;;
67640;SDS011;54434;50.096;20.082;2023-04-24T01:57:24;14.30;;;9.00;;
67640;SDS011;54434;50.096;20.082;2023-04-24T02:00:01;16.70;;;9.30;;
67640;SDS011;54434;50.096;20.082;2023-04-24T02:02:45;15.50;;;9.50;;
67640;SDS011;54434;50.096;20.082;2023-04-24T02:05:23;16.10;;;9.80;;
67640;SDS011;54434;50.096;20.082;2023-04-24T02:07:59;17.60;;;8.90;;
67640;SDS011;54434;50.096;20.082;2023-04-24T02:10:35;15.60;;;9.10;;
67640;SDS011;54434;50.096;20.082;2023-04-24T02:13:12;15.50;;;9.40;;
67640;SDS011;54434;50.096;20.082;2023-04-24T02:15:48;17.60;;;9.50;;
67640;SDS011;54434;50.096;20.082;2023-04-24T02:18:25;14.50;;;9.00;;
67640;SDS011;54434;50.096;20.082;2023-04-24T02:21:03;15.50;;;9.20;;
67640;SDS011;54434;50.096;20.082;2023-04-24T02:23:41;16.90;;;9.10;;
67640;SDS011;54434;50.096;20.082;2023-04-24T02:26:18;15.10;;;9.10;;
67640;SDS011;54434;50.096;20.082;2023-04-24T02:28:57;14.00;;;9.30;;
67640;SDS011;54434;50.096;20.082;2023-04-24T02:31:33;19.20;;;9.40;;
67640;SDS011;54434;50.096;20.082;2023-04-24T02:34:10;19.90;;;9.70;;
67640;SDS011;54434;50.096;20.082;2023-04-24T02:36:46;17.20;;;9.90;;
67640;SDS011;54434;50.096;20.082;2023-04-24T02:39:23;17.20;;;9.50;;
67640;SDS011;54434;50.096;20.082;2023-04-24T02:42:00;15.30;;;9.50;;
67640;SDS011;54434;50.096;20.082;2023-04-24T02:44:36;16.10;;;10.20;;
67640;SDS011;54434;50.096;20.082;2023-04-24T02:47:13;17.50;;;9.60;;
67640;SDS011;54434;50.096;20.082;2023-04-24T02:49:49;17.40;;;10.30;;
67640;SDS011;54434;50.096;20.082;2023-04-24T02:52:26;15.70;;;10.10;;
67640;SDS011;54434;50.096;20.082;2023-04-24T02:55:02;16.20;;;9.90;;
67640;SDS011;54434;50.096;20.082;2023-04-24T02:57:41;18.30;;;9.70;;
67640;SDS011;54434;50.096;20.082;2023-04-24T03:00:19;16.30;;;10.30;;
67640;SDS011;54434;50.096;20.082;2023-04-24T03:02:55;17.40;;;9.60;;
67640;SDS011;54434;50.096;20.082;2023-04-24T03:05:32;18.20;;;10.30;;
67640;SDS011;54434;50.096;20.082;2023-04-24T03:08:09;16.00;;;9.60;;
67640;SDS011;54434;50.096;20.082;2023-04-24T03:10:46;16.20;;;9.30;;
67640;SDS011;54434;50.096;20.082;2023-04-24T03:13:22;17.50;;;10.00;;
67640;SDS011;54434;50.096;20.082;2023-04-24T03:15:59;14.60;;;9.50;;
67640;SDS011;54434;50.096;20.082;2023-04-24T03:18:35;13.90;;;9.60;;
67640;SDS011;54434;50.096;20.082;2023-04-24T03:21:13;14.30;;;9.40;;
67640;SDS011;54434;50.096;20.082;2023-04-24T03:23:49;18.40;;;9.20;;
67640;SDS011;54434;50.096;20.082;2023-04-24T03:26:26;17.30;;;9.50;;
67640;SDS011;54434;50.096;20.082;2023-04-24T03:29:59;14.40;;;9.00;;
67640;SDS011;54434;50.096;20.082;2023-04-24T03:32:49;17.00;;;8.90;;
67640;SDS011;54434;50.096;20.082;2023-04-24T03:35:29;16.30;;;9.60;;
67640;SDS011;54434;50.096;20.082;2023-04-24T03:38:07;16.60;;;9.00;;
67640;SDS011;54434;50.096;20.082;2023-04-24T03:41:02;12.70;;;8.30;;
67640;SDS011;54434;50.096;20.082;2023-04-24T03:43:43;14.20;;;9.00;;
67640;SDS011;54434;50.096;20.082;2023-04-24T03:46:21;15.70;;;8.90;;
67640;SDS011;54434;50.096;20.082;2023-04-24T03:49:00;15.50;;;8.80;;
67640;SDS011;54434;50.096;20.082;2023-04-24T03:51:42;16.00;;;8.90;;
67640;SDS011;54434;50.096;20.082;2023-04-24T03:54:29;15.90;;;9.20;;
67640;SDS011;54434;50.096;20.082;2023-04-24T03:57:06;17.20;;;9.50;;
67640;SDS011;54434;50.096;20.082;2023-04-24T03:59:43;35.60;;;17.30;;
67640;SDS011;54434;50.096;20.082;2023-04-24T04:02:22;27.00;;;14.80;;
67640;SDS011;54434;50.096;20.082;2023-04-24T04:04:59;19.20;;;10.10;;
67640;SDS011;54434;50.096;20.082;2023-04-24T04:07:36;13.40;;;8.80;;
67640;SDS011;54434;50.096;20.082;2023-04-24T04:10:13;19.00;;;8.40;;
67640;SDS011;54434;50.096;20.082;2023-04-24T04:12:50;15.50;;;8.50;;
67640;SDS011;54434;50.096;20.082;2023-04-24T04:15:26;16.30;;;8.70;;
67640;SDS011;54434;50.096;20.082;2023-04-24T04:18:03;15.20;;;8.90;;
67640;SDS011;54434;50.096;20.082;2023-04-24T04:20:40;15.40;;;8.50;;
67640;SDS011;54434;50.096;20.082;2023-04-24T04:23:17;16.30;;;8.40;;
67640;SDS011;54434;50.096;20.082;2023-04-24T04:26:07;17.00;;;8.10;;
67640;SDS011;54434;50.096;20.082;2023-04-24T04:29:19;15.50;;;8.00;;
67640;SDS011;54434;50.096;20.082;2023-04-24T04:31:57;16.90;;;7.70;;
67640;SDS011;54434;50.096;20.082;2023-04-24T04:34:34;13.30;;;7.20;;
67640;SDS011;54434;50.096;20.082;2023-04-24T04:37:13;13.40;;;7.20;;
67640;SDS011;54434;50.096;20.082;2023-04-24T04:40:39;10.20;;;6.60;;
67640;SDS011;54434;50.096;20.082;2023-04-24T04:43:18;10.50;;;6.60;;
67640;SDS011;54434;50.096;20.082;2023-04-24T04:45:57;10.50;;;6.50;;
67640;SDS011;54434;50.096;20.082;2023-04-24T04:48:34;14.70;;;6.60;;
67640;SDS011;54434;50.096;20.082;2023-04-24T04:51:11;11.60;;;6.60;;
67640;SDS011;54434;50.096;20.082;2023-04-24T04:53:48;13.30;;;6.90;;
67640;SDS011;54434;50.096;20.082;2023-04-24T04:56:24;10.10;;;6.30;;
67640;SDS011;54434;50.096;20.082;2023-04-24T04:59:01;10.90;;;6.40;;
67640;SDS011;54434;50.096;20.082;2023-04-24T05:01:42;11.50;;;6.60;;
67640;SDS011;54434;50.096;20.082;2023-04-24T05:04:18;11.40;;;6.70;;
67640;SDS011;54434;50.096;20.082;2023-04-24T05:06:55;22.00;;;10.60;;
67640;SDS011;54434;50.096;20.082;2023-04-24T05:09:32;12.90;;;7.90;;
67640;SDS011;54434;50.096;20.082;2023-04-24T05:12:11;32.30;;;17.00;;
67640;SDS011;54434;50.096;20.082;2023-04-24T05:14:52;12.30;;;7.20;;
67640;SDS011;54434;50.096;20.082;2023-04-24T05:17:31;11.80;;;7.60;;
67640;SDS011;54434;50.096;20.082;2023-04-24T05:20:10;12.30;;;8.20;;
67640;SDS011;54434;50.096;20.082;2023-04-24T05:22:48;13.20;;;7.60;;
67640;SDS011;54434;50.096;20.082;2023-04-24T05:25:26;16.50;;;9.30;;
67640;SDS011;54434;50.096;20.082;2023-04-24T05:28:11;9.80;;;6.40;;
67640;SDS011;54434;50.096;20.082;2023-04-24T05:30:49;13.50;;;8.50;;
67640;SDS011;54434;50.096;20.082;2023-04-24T05:33:26;11.80;;;8.40;;
67640;SDS011;54434;50.096;20.082;2023-04-24T05:36:04;17.70;;;12.10;;
67640;SDS011;54434;50.096;20.082;2023-04-24T05:38:41;22.40;;;10.90;;
67640;SDS011;54434;50.096;20.082;2023-04-24T05:41:17;10.10;;;6.10;;
67640;SDS011;54434;50.096;20.082;2023-04-24T05:43:54;21.70;;;15.40;;
67640;SDS011;54434;50.096;20.082;2023-04-24T05:46:30;11.70;;;8.10;;
67640;SDS011;54434;50.096;20.082;2023-04-24T05:49:07;13.00;;;8.60;;
67640;SDS011;54434;50.096;20.082;2023-04-24T05:51:44;11.90;;;8.00;;
67640;SDS011;54434;50.096;20.082;2023-04-24T05:54:21;9.00;;;6.40;;
67640;SDS011;54434;50.096;20.082;2023-04-24T05:56:58;10.50;;;6.80;;
67640;SDS011;54434;50.096;20.082;2023-04-24T05:59:47;11.30;;;6.70;;
67640;SDS011;54434;50.096;20.082;2023-04-24T06:02:24;9.80;;;5.70;;
67640;SDS011;54434;50.096;20.082;2023-04-24T06:07:43;13.80;;;6.30;;
67640;SDS011;54434;50.096;20.082;2023-04-24T06:10:20;11.10;;;7.20;;
67640;SDS011;54434;50.096;20.082;2023-04-24T06:12:57;12.30;;;6.20;;
67640;SDS011;54434;50.096;20.082;2023-04-24T06:15:36;9.00;;;6.00;;
67640;SDS011;54434;50.096;20.082;2023-04-24T06:18:15;11.40;;;6.00;;
67640;SDS011;54434;50.096;20.082;2023-04-24T06:20:53;11.70;;;5.80;;
67640;SDS011;54434;50.096;20.082;2023-04-24T06:23:30;8.70;;;6.20;;
67640;SDS011;54434;50.096;20.082;2023-04-24T06:26:07;10.10;;;5.90;;
67640;SDS011;54434;50.096;20.082;2023-04-24T06:28:44;11.70;;;6.00;;
67640;SDS011;54434;50.096;20.082;2023-04-24T06:31:20;12.30;;;5.90;;
67640;SDS011;54434;50.096;20.082;2023-04-24T06:33:57;13.40;;;5.80;;
67640;SDS011;54434;50.096;20.082;2023-04-24T06:36:35;13.60;;;5.90;;
67640;SDS011;54434;50.096;20.082;2023-04-24T06:39:12;12.30;;;5.90;;
67640;SDS011;54434;50.096;20.082;2023-04-24T06:41:49;14.60;;;6.20;;
67640;SDS011;54434;50.096;20.082;2023-04-24T06:44:25;12.20;;;5.90;;
67640;SDS011;54434;50.096;20.082;2023-04-24T06:47:02;11.40;;;6.20;;
67640;SDS011;54434;50.096;20.082;2023-04-24T06:49:39;10.90;;;5.80;;
67640;SDS011;54434;50.096;20.082;2023-04-24T06:52:16;18.80;;;6.60;;
67640;SDS011;54434;50.096;20.082;2023-04-24T06:54:52;13.90;;;5.70;;
67640;SDS011;54434;50.096;20.082;2023-04-24T06:57:36;24.80;;;10.60;;
67640;SDS011;54434;50.096;20.082;2023-04-24T07:00:15;21.90;;;10.40;;
67640;SDS011;54434;50.096;20.082;2023-04-24T07:02:52;22.20;;;9.30;;
67640;SDS011;54434;50.096;20.082;2023-04-24T07:05:29;17.50;;;9.00;;
67640;SDS011;54434;50.096;20.082;2023-04-24T07:08:07;23.90;;;9.60;;
67640;SDS011;54434;50.096;20.082;2023-04-24T07:10:44;16.80;;;8.70;;
67640;SDS011;54434;50.096;20.082;2023-04-24T07:13:21;20.30;;;8.30;;
67640;SDS011;54434;50.096;20.082;2023-04-24T07:15:58;19.70;;;9.00;;
67640;SDS011;54434;50.096;20.082;2023-04-24T07:18:34;19.20;;;8.10;;
67640;SDS011;54434;50.096;20.082;2023-04-24T07:21:10;20.60;;;7.60;;
67640;SDS011;54434;50.096;20.082;2023-04-24T07:23:47;22.30;;;8.40;;
67640;SDS011;54434;50.096;20.082;2023-04-24T07:26:23;12.00;;;5.50;;
67640;SDS011;54434;50.096;20.082;2023-04-24T07:29:00;10.10;;;5.20;;
67640;SDS011;54434;50.096;20.082;2023-04-24T07:31:36;20.80;;;10.00;;
67640;SDS011;54434;50.096;20.082;2023-04-24T07:34:14;18.70;;;7.70;;
67640;SDS011;54434;50.096;20.082;2023-04-24T07:36:50;16.80;;;8.10;;
67640;SDS011;54434;50.096;20.082;2023-04-24T07:39:27;17.80;;;7.60;;
67640;SDS011;54434;50.096;20.082;2023-04-24T07:42:04;15.50;;;6.90;;
67640;SDS011;54434;50.096;20.082;2023-04-24T07:44:40;14.60;;;6.30;;
67640;SDS011;54434;50.096;20.082;2023-04-24T07:47:16;9.40;;;4.90;;
67640;SDS011;54434;50.096;20.082;2023-04-24T07:49:53;15.40;;;5.50;;
67640;SDS011;54434;50.096;20.082;2023-04-24T07:52:29;11.90;;;5.80;;
67640;SDS011;54434;50.096;20.082;2023-04-24T07:55:07;10.70;;;5.30;;
67640;SDS011;54434;50.096;20.082;2023-04-24T07:57:43;10.40;;;5.70;;
67640;SDS011;54434;50.096;20.082;2023-04-24T08:00:21;10.40;;;5.30;;
67640;SDS011;54434;50.096;20.082;2023-04-24T08:02:57;12.30;;;4.30;;
67640;SDS011;54434;50.096;20.082;2023-04-24T08:05:34;8.10;;;4.10;;
67640;SDS011;54434;50.096;20.082;2023-04-24T08:08:13;10.50;;;4.30;;
67640;SDS011;54434;50.096;20.082;2023-04-24T08:10:50;12.00;;;5.10;;
67640;SDS011;54434;50.096;20.082;2023-04-24T08:13:26;9.60;;;4.40;;
67640;SDS011;54434;50.096;20.082;2023-04-24T08:16:03;7.10;;;3.90;;
67640;SDS011;54434;50.096;20.082;2023-04-24T08:18:39;10.10;;;5.10;;
67640;SDS011;54434;50.096;20.082;2023-04-24T08:21:16;10.90;;;5.60;;
67640;SDS011;54434;50.096;20.082;2023-04-24T08:23:53;10.00;;;4.40;;
67640;SDS011;54434;50.096;20.082;2023-04-24T08:26:29;9.50;;;4.30;;
67640;SDS011;54434;50.096;20.082;2023-04-24T08:29:06;8.30;;;4.10;;
67640;SDS011;54434;50.096;20.082;2023-04-24T08:31:42;7.20;;;4.30;;
67640;SDS011;54434;50.096;20.082;2023-04-24T08:34:19;9.30;;;5.40;;
67640;SDS011;54434;50.096;20.082;2023-04-24T08:36:56;7.80;;;4.80;;
67640;SDS011;54434;50.096;20.082;2023-04-24T08:39:32;8.70;;;5.00;;
67640;SDS011;54434;50.096;20.082;2023-04-24T08:42:09;7.60;;;4.40;;
67640;SDS011;54434;50.096;20.082;2023-04-24T08:44:50;6.90;;;4.30;;
67640;SDS011;54434;50.096;20.082;2023-04-24T08:47:26;6.00;;;4.10;;
67640;SDS011;54434;50.096;20.082;2023-04-24T08:50:06;12.10;;;6.20;;
67640;SDS011;54434;50.096;20.082;2023-04-24T08:52:44;19.10;;;11.30;;
67640;SDS011;54434;50.096;20.082;2023-04-24T08:55:22;13.50;;;8.50;;
67640;SDS011;54434;50.096;20.082;2023-04-24T08:58:01;6.50;;;3.70;;
67640;SDS011;54434;50.096;20.082;2023-04-24T09:00:40;7.20;;;3.90;;
67640;SDS011;54434;50.096;20.082;2023-04-24T09:03:22;10.20;;;4.40;;
67640;SDS011;54434;50.096;20.082;2023-04-24T09:06:00;9.20;;;4.20;;
67640;SDS011;54434;50.096;20.082;2023-04-24T09:08:39;8.80;;;4.50;;
67640;SDS011;54434;50.096;20.082;2023-04-24T09:11:18;9.30;;;4.50;;
67640;SDS011;54434;50.096;20.082;2023-04-24T09:13:57;11.50;;;5.00;;
67640;SDS011;54434;50.096;20.082;2023-04-24T09:16:35;9.10;;;4.30;;
67640;SDS011;54434;50.096;20.082;2023-04-24T09:19:12;7.90;;;4.20;;
67640;SDS011;54434;50.096;20.082;2023-04-24T09:21:49;8.00;;;4.00;;
67640;SDS011;54434;50.096;20.082;2023-04-24T09:24:29;9.90;;;4.00;;
67640;SDS011;54434;50.096;20.082;2023-04-24T09:27:05;9.10;;;4.50;;
67640;SDS011;54434;50.096;20.082;2023-04-24T09:29:59;8.10;;;4.10;;
67640;SDS011;54434;50.096;20.082;2023-04-24T09:35:15;7.40;;;3.70;;
67640;SDS011;54434;50.096;20.082;2023-04-24T09:37:51;8.60;;;4.30;;
67640;SDS011;54434;50.096;20.082;2023-04-24T09:40:29;10.00;;;5.10;;
67640;SDS011;54434;50.096;20.082;2023-04-24T09:43:12;8.50;;;4.10;;
67640;SDS011;54434;50.096;20.082;2023-04-24T09:45:48;9.00;;;4.00;;
67640;SDS011;54434;50.096;20.082;2023-04-24T09:48:37;9.40;;;4.10;;
67640;SDS011;54434;50.096;20.082;2023-04-24T09:51:14;10.10;;;4.30;;
67640;SDS011;54434;50.096;20.082;2023-04-24T09:53:54;7.50;;;4.00;;
67640;SDS011;54434;50.096;20.082;2023-04-24T09:56:33;10.30;;;4.00;;
67640;SDS011;54434;50.096;20.082;2023-04-24T09:59:10;7.10;;;4.30;;
67640;SDS011;54434;50.096;20.082;2023-04-24T10:01:48;7.10;;;3.70;;
67640;SDS011;54434;50.096;20.082;2023-04-24T10:04:27;6.80;;;4.10;;
67640;SDS011;54434;50.096;20.082;2023-04-24T10:07:05;6.10;;;3.90;;
67640;SDS011;54434;50.096;20.082;2023-04-24T10:09:43;5.50;;;3.70;;
67640;SDS011;54434;50.096;20.082;2023-04-24T10:12:20;8.60;;;4.10;;
67640;SDS011;54434;50.096;20.082;2023-04-24T10:14:58;6.50;;;4.00;;
67640;SDS011;54434;50.096;20.082;2023-04-24T10:17:36;6.40;;;3.70;;
67640;SDS011;54434;50.096;20.082;2023-04-24T10:20:14;4.70;;;3.40;;
67640;SDS011;54434;50.096;20.082;2023-04-24T10:22:55;6.40;;;3.60;;
67640;SDS011;54434;50.096;20.082;2023-04-24T10:25:34;9.40;;;3.90;;
67640;SDS011;54434;50.096;20.082;2023-04-24T10:28:11;8.30;;;4.70;;
67640;SDS011;54434;50.096;20.082;2023-04-24T10:30:49;6.40;;;4.20;;
67640;SDS011;54434;50.096;20.082;2023-04-24T10:33:29;7.40;;;3.80;;
67640;SDS011;54434;50.096;20.082;2023-04-24T10:36:15;6.60;;;3.50;;
67640;SDS011;54434;50.096;20.082;2023-04-24T10:39:02;7.00;;;3.40;;
67640;SDS011;54434;50.096;20.082;2023-04-24T10:41:42;7.00;;;3.70;;
67640;SDS011;54434;50.096;20.082;2023-04-24T10:44:23;7.20;;;4.10;;
67640;SDS011;54434;50.096;20.082;2023-04-24T10:47:00;6.20;;;3.70;;
67640;SDS011;54434;50.096;20.082;2023-04-24T10:49:37;6.50;;;3.60;;
67640;SDS011;54434;50.096;20.082;2023-04-24T10:52:15;10.70;;;3.80;;
67640;SDS011;54434;50.096;20.082;2023-04-24T10:54:51;9.10;;;3.50;;
67640;SDS011;54434;50.096;20.082;2023-04-24T10:57:32;7.80;;;3.80;;
67640;SDS011;54434;50.096;20.082;2023-04-24T11:00:18;7.30;;;3.50;;
67640;SDS011;54434;50.096;20.082;2023-04-24T11:02:56;10.60;;;3.50;;
67640;SDS011;54434;50.096;20.082;2023-04-24T11:05:55;10.10;;;4.00;;
67640;SDS011;54434;50.096;20.082;2023-04-24T11:08:38;5.30;;;3.60;;
67640;SDS011;54434;50.096;20.082;2023-04-24T11:11:18;8.00;;;3.90;;
67640;SDS011;54434;50.096;20.082;2023-04-24T11:14:13;7.60;;;3.60;;
67640;SDS011;54434;50.096;20.082;2023-04-24T11:16:56;8.00;;;3.90;;
67640;SDS011;54434;50.096;20.082;2023-04-24T11:19:35;6.50;;;3.90;;
67640;SDS011;54434;50.096;20.082;2023-04-24T11:22:17;8.50;;;3.90;;
67640;SDS011;54434;50.096;20.082;2023-04-24T11:24:56;8.70;;;3.90;;
67640;SDS011;54434;50.096;20.082;2023-04-24T11:27:43;9.00;;;4.00;;
67640;SDS011;54434;50.096;20.082;2023-04-24T11:30:22;5.50;;;3.40;;
67640;SDS011;54434;50.096;20.082;2023-04-24T11:33:06;5.70;;;3.40;;
67640;SDS011;54434;50.096;20.082;2023-04-24T11:35:44;5.10;;;3.50;;
67640;SDS011;54434;50.096;20.082;2023-04-24T11:38:21;9.90;;;4.50;;
67640;SDS011;54434;50.096;20.082;2023-04-24T11:41:02;7.40;;;3.70;;
67640;SDS011;54434;50.096;20.082;2023-04-24T11:43:41;7.00;;;3.80;;
67640;SDS011;54434;50.096;20.082;2023-04-24T11:46:21;12.30;;;3.70;;
67640;SDS011;54434;50.096;20.082;2023-04-24T11:49:01;7.00;;;4.10;;
67640;SDS011;54434;50.096;20.082;2023-04-24T11:51:38;6.90;;;4.20;;
67640;SDS011;54434;50.096;20.082;2023-04-24T11:54:26;7.30;;;3.80;;
67640;SDS011;54434;50.096;20.082;2023-04-24T11:57:05;6.00;;;3.60;;
67640;SDS011;54434;50.096;20.082;2023-04-24T11:59:42;10.90;;;4.00;;
67640;SDS011;54434;50.096;20.082;2023-04-24T12:02:26;7.40;;;4.40;;
67640;SDS011;54434;50.096;20.082;2023-04-24T12:05:03;6.50;;;3.80;;
67640;SDS011;54434;50.096;20.082;2023-04-24T12:07:44;6.50;;;3.70;;
67640;SDS011;54434;50.096;20.082;2023-04-24T12:10:26;8.80;;;4.30;;
67640;SDS011;54434;50.096;20.082;2023-04-24T12:13:04;8.20;;;4.20;;
67640;SDS011;54434;50.096;20.082;2023-04-24T12:15:44;7.10;;;3.90;;
67640;SDS011;54434;50.096;20.082;2023-04-24T12:18:23;6.30;;;3.90;;
67640;SDS011;54434;50.096;20.082;2023-04-24T12:21:20;8.60;;;3.90;;
67640;SDS011;54434;50.096;20.082;2023-04-24T12:24:00;8.20;;;4.10;;
67640;SDS011;54434;50.096;20.082;2023-04-24T12:26:44;8.10;;;4.10;;
67640;SDS011;54434;50.096;20.082;2023-04-24T12:29:24;7.90;;;3.90;;
67640;SDS011;54434;50.096;20.082;2023-04-24T12:32:01;26.80;;;14.50;;
67640;SDS011;54434;50.096;20.082;2023-04-24T12:34:38;6.50;;;3.90;;
67640;SDS011;54434;50.096;20.082;2023-04-24T12:37:14;7.40;;;3.90;;
67640;SDS011;54434;50.096;20.082;2023-04-24T12:40:06;7.60;;;3.80;;
67640;SDS011;54434;50.096;20.082;2023-04-24T12:42:47;9.90;;;4.20;;
67640;SDS011;54434;50.096;20.082;2023-04-24T12:48:01;8.40;;;4.00;;
67640;SDS011;54434;50.096;20.082;2023-04-24T12:50:39;11.80;;;5.20;;
67640;SDS011;54434;50.096;20.082;2023-04-24T12:55:54;7.80;;;4.60;;
67640;SDS011;54434;50.096;20.082;2023-04-24T12:58:31;8.90;;;4.70;;
67640;SDS011;54434;50.096;20.082;2023-04-24T13:01:07;8.30;;;4.00;;
67640;SDS011;54434;50.096;20.082;2023-04-24T13:03:44;10.40;;;4.20;;
67640;SDS011;54434;50.096;20.082;2023-04-24T13:06:22;8.40;;;4.30;;
67640;SDS011;54434;50.096;20.082;2023-04-24T13:08:59;11.50;;;5.60;;
67640;SDS011;54434;50.096;20.082;2023-04-24T13:11:36;11.50;;;5.20;;
67640;SDS011;54434;50.096;20.082;2023-04-24T13:14:13;13.30;;;5.30;;
67640;SDS011;54434;50.096;20.082;2023-04-24T13:16:49;12.40;;;5.70;;
67640;SDS011;54434;50.096;20.082;2023-04-24T13:19:27;15.20;;;5.60;;
67640;SDS011;54434;50.096;20.082;2023-04-24T13:22:05;10.80;;;4.80;;
67640;SDS011;54434;50.096;20.082;2023-04-24T13:24:41;13.10;;;5.20;;
67640;SDS011;54434;50.096;20.082;2023-04-24T13:27:18;9.90;;;4.70;;
67640;SDS011;54434;50.096;20.082;2023-04-24T13:29:55;7.50;;;4.80;;
67640;SDS011;54434;50.096;20.082;2023-04-24T13:32:31;8.10;;;4.90;;
67640;SDS011;54434;50.096;20.082;2023-04-24T13:35:10;11.30;;;5.20;;
67640;SDS011;54434;50.096;20.082;2023-04-24T13:37:46;9.10;;;5.50;;
67640;SDS011;54434;50.096;20.082;2023-04-24T13:40:22;8.10;;;5.10;;
67640;SDS011;54434;50.096;20.082;2023-04-24T13:42:59;9.40;;;5.10;;
67640;SDS011;54434;50.096;20.082;2023-04-24T13:45:36;9.10;;;5.00;;
67640;SDS011;54434;50.096;20.082;2023-04-24T13:48:12;8.70;;;4.90;;
67640;SDS011;54434;50.096;20.082;2023-04-24T13:50:49;12.50;;;5.30;;
67640;SDS011;54434;50.096;20.082;2023-04-24T13:53:25;12.10;;;4.60;;
67640;SDS011;54434;50.096;20.082;2023-04-24T13:56:02;8.60;;;4.80;;
67640;SDS011;54434;50.096;20.082;2023-04-24T13:58:39;7.60;;;4.10;;
67640;SDS011;54434;50.096;20.082;2023-04-24T14:01:15;8.70;;;4.20;;
67640;SDS011;54434;50.096;20.082;2023-04-24T14:03:52;8.30;;;3.90;;
67640;SDS011;54434;50.096;20.082;2023-04-24T14:06:30;10.20;;;5.00;;
67640;SDS011;54434;50.096;20.082;2023-04-24T14:09:07;16.60;;;5.50;;
67640;SDS011;54434;50.096;20.082;2023-04-24T14:11:43;14.40;;;4.70;;
67640;SDS011;54434;50.096;20.082;2023-04-24T14:14:20;9.50;;;4.80;;
67640;SDS011;54434;50.096;20.082;2023-04-24T14:16:56;11.30;;;4.80;;
67640;SDS011;54434;50.096;20.082;2023-04-24T14:19:33;8.30;;;3.70;;
67640;SDS011;54434;50.096;20.082;2023-04-24T14:22:09;6.80;;;3.90;;
67640;SDS011;54434;50.096;20.082;2023-04-24T14:24:45;6.50;;;3.60;;
67640;SDS011;54434;50.096;20.082;2023-04-24T14:27:22;7.40;;;3.40;;
67640;SDS011;54434;50.096;20.082;2023-04-24T14:29:58;5.40;;;3.60;;
67640;SDS011;54434;50.096;20.082;2023-04-24T14:32:35;8.70;;;3.70;;
67640;SDS011;54434;50.096;20.082;2023-04-24T14:35:12;7.70;;;3.40;;
67640;SDS011;54434;50.096;20.082;2023-04-24T14:37:48;11.80;;;3.60;;
67640;SDS011;54434;50.096;20.082;2023-04-24T14:40:25;8.40;;;3.70;;
67640;SDS011;54434;50.096;20.082;2023-04-24T14:43:21;6.90;;;4.00;;
67640;SDS011;54434;50.096;20.082;2023-04-24T14:45:58;7.80;;;4.00;;
67640;SDS011;54434;50.096;20.082;2023-04-24T14:48:34;8.90;;;3.80;;
67640;SDS011;54434;50.096;20.082;2023-04-24T14:51:11;7.30;;;4.10;;
67640;SDS011;54434;50.096;20.082;2023-04-24T14:53:47;9.60;;;3.90;;
67640;SDS011;54434;50.096;20.082;2023-04-24T14:56:24;13.10;;;7.10;;
67640;SDS011;54434;50.096;20.082;2023-04-24T14:59:00;10.90;;;4.30;;
67640;SDS011;54434;50.096;20.082;2023-04-24T15:01:37;7.80;;;3.50;;
67640;SDS011;54434;50.096;20.082;2023-04-24T15:04:13;10.20;;;4.20;;
67640;SDS011;54434;50.096;20.082;2023-04-24T15:06:50;7.00;;;3.50;;
67640;SDS011;54434;50.096;20.082;2023-04-24T15:09:27;6.90;;;3.30;;
67640;SDS011;54434;50.096;20.082;2023-04-24T15:12:05;8.70;;;4.00;;
67640;SDS011;54434;50.096;20.082;2023-04-24T15:14:43;10.10;;;4.00;;
67640;SDS011;54434;50.096;20.082;2023-04-24T15:17:19;6.50;;;3.50;;
67640;SDS011;54434;50.096;20.082;2023-04-24T15:19:55;5.90;;;3.20;;
67640;SDS011;54434;50.096;20.082;2023-04-24T15:22:32;5.60;;;3.40;;
67640;SDS011;54434;50.096;20.082;2023-04-24T15:25:11;8.10;;;4.00;;
67640;SDS011;54434;50.096;20.082;2023-04-24T15:27:48;6.70;;;3.30;;
67640;SDS011;54434;50.096;20.082;2023-04-24T15:30:24;8.70;;;3.40;;
67640;SDS011;54434;50.096;20.082;2023-04-24T15:33:01;7.10;;;3.80;;
67640;SDS011;54434;50.096;20.082;2023-04-24T15:35:38;9.50;;;5.00;;
67640;SDS011;54434;50.096;20.082;2023-04-24T15:38:15;8.20;;;4.30;;
67640;SDS011;54434;50.096;20.082;2023-04-24T15:40:51;6.80;;;3.60;;
67640;SDS011;54434;50.096;20.082;2023-04-24T15:43:28;8.70;;;4.00;;